Time;durP1;ratioP1;P1;durP2;ratioP2;P2;SDS_P1;SDS_P2;PMS_P1;PMS_P2;Temp;Humidity;BMP_temperature;BMP_pressure;BME280_temperature;BME280_humidity;BME280_pressure;Samples;Min_cycle;Max_cycle;Signal;HPM_P1;HPM_P2
2022/12/12 00:00:22;;;;;;;3.00;2.10;;;18.40;51.80;;;;;;4913442;29;20049;-64
2022/12/12 00:02:47;;;;;;;6.07;2.13;;;18.40;51.80;;;;;;4912242;29;20460;-65
2022/12/12 00:05:15;;;;;;;4.13;2.53;;;18.40;51.80;;;;;;4911112;29;20052;-66
2022/12/12 00:07:40;;;;;;;4.22;2.15;;;18.40;51.80;;;;;;4906498;29;20071;-65
2022/12/12 00:10:07;;;;;;;2.67;1.98;;;18.40;51.80;;;;;;4912057;29;20457;-65
2022/12/12 00:12:33;;;;;;;3.67;2.25;;;18.40;51.70;;;;;;4916002;29;20040;-65
2022/12/12 00:14:58;;;;;;;2.55;2.00;;;18.40;51.70;;;;;;4925909;29;20054;-65
2022/12/12 00:17:24;;;;;;;4.85;2.38;;;18.40;51.70;;;;;;4911696;29;20075;-65
2022/12/12 00:19:51;;;;;;;2.50;1.92;;;18.40;51.60;;;;;;4912551;29;20082;-65
2022/12/12 00:22:16;;;;;;;4.13;2.08;;;18.40;51.60;;;;;;4897700;29;20068;-65
2022/12/12 00:24:42;;;;;;;3.67;2.10;;;18.30;51.50;;;;;;4911497;29;20056;-65
2022/12/12 00:27:08;;;;;;;2.55;2.30;;;18.40;51.60;;;;;;4910433;29;20757;-65
2022/12/12 00:29:33;;;;;;;3.13;2.22;;;18.40;51.50;;;;;;4926416;29;20092;-65
2022/12/12 00:31:59;;;;;;;3.22;2.10;;;18.40;51.50;;;;;;4911260;29;20040;-65
2022/12/12 00:34:25;;;;;;;3.03;2.03;;;18.40;51.50;;;;;;4910739;29;20048;-65
2022/12/12 00:36:50;;;;;;;3.92;2.50;;;18.40;51.50;;;;;;4905876;29;20471;-65
2022/12/12 00:39:17;;;;;;;3.17;2.10;;;18.40;51.50;;;;;;4910580;29;20041;-65
2022/12/12 00:41:43;;;;;;;3.92;2.10;;;18.40;51.50;;;;;;4911285;29;20508;-66
2022/12/12 00:44:09;;;;;;;2.47;1.80;;;18.30;51.40;;;;;;4910539;29;20095;-65
2022/12/12 00:46:34;;;;;;;3.45;2.00;;;18.30;51.50;;;;;;4912014;29;20800;-65
2022/12/12 00:49:00;;;;;;;1.95;1.75;;;18.30;51.40;;;;;;4915674;29;20048;-65
2022/12/12 00:51:28;;;;;;;2.70;1.90;;;18.30;51.30;;;;;;4910021;29;20047;-65
2022/12/12 00:53:55;;;;;;;2.72;1.95;;;18.30;51.40;;;;;;4913503;29;20432;-65
2022/12/12 00:56:22;;;;;;;3.15;2.10;;;18.30;51.30;;;;;;4909954;29;20036;-65
2022/12/12 00:58:51;;;;;;;2.58;1.90;;;18.30;51.30;;;;;;4910804;29;20075;-65
2022/12/12 01:01:20;;;;;;;2.67;2.03;;;18.30;51.20;;;;;;4908208;29;20523;-65
2022/12/12 01:03:46;;;;;;;3.83;1.88;;;18.30;51.20;;;;;;4899500;29;20043;-65
2022/12/12 01:06:13;;;;;;;3.15;1.80;;;18.30;51.20;;;;;;4909538;29;20408;-65
2022/12/12 01:08:39;;;;;;;2.63;1.90;;;18.30;51.20;;;;;;4909372;29;20587;-65
2022/12/12 01:11:06;;;;;;;3.05;1.75;;;18.30;51.20;;;;;;4911645;29;20047;-65
2022/12/12 01:13:32;;;;;;;2.45;1.80;;;18.30;51.20;;;;;;4890477;29;20039;-65
2022/12/12 01:15:58;;;;;;;3.92;1.90;;;18.30;51.10;;;;;;4910352;29;20047;-65
2022/12/12 01:18:24;;;;;;;3.10;1.80;;;18.30;51.10;;;;;;4907963;29;20362;-65
2022/12/12 01:20:50;;;;;;;2.15;1.70;;;18.30;51.10;;;;;;4899455;29;20464;-65
2022/12/12 01:23:15;;;;;;;3.58;2.13;;;18.40;51.20;;;;;;4910206;29;20158;-65
2022/12/12 01:25:41;;;;;;;2.28;1.88;;;18.30;51.10;;;;;;4911320;29;20040;-65
2022/12/12 01:28:07;;;;;;;1.80;1.45;;;18.40;51.10;;;;;;4909531;29;20500;-66
2022/12/12 01:30:33;;;;;;;2.13;1.90;;;18.30;51.10;;;;;;4910008;29;20056;-67
2022/12/12 01:32:59;;;;;;;2.38;1.70;;;18.30;51.00;;;;;;4910652;29;20040;-66
2022/12/12 01:35:25;;;;;;;3.05;1.98;;;18.30;51.00;;;;;;4909957;29;20434;-66
2022/12/12 01:37:51;;;;;;;3.85;1.85;;;18.30;51.00;;;;;;4920091;29;20044;-65
2022/12/12 01:40:20;;;;;;;2.90;1.80;;;18.30;50.90;;;;;;4908771;29;20052;-65
2022/12/12 01:42:47;;;;;;;2.35;2.00;;;18.30;50.90;;;;;;4910844;29;20147;-65
2022/12/12 01:45:50;;;;;;;2.50;1.70;;;18.30;50.90;;;;;;4909649;29;20044;-65
2022/12/12 01:48:16;;;;;;;2.22;1.65;;;18.30;50.80;;;;;;4915381;29;20056;-65
2022/12/12 01:50:44;;;;;;;;;;;18.30;50.80;;;;;;4911714;29;20094;-67
2022/12/12 01:53:12;;;;;;;2.25;1.70;;;18.40;50.90;;;;;;4900909;29;19927;-65
2022/12/12 01:55:38;;;;;;;1.93;1.50;;;18.30;50.90;;;;;;4907311;29;20052;-65
2022/12/12 01:58:04;;;;;;;2.75;1.95;;;18.30;50.80;;;;;;4903726;29;20119;-66
2022/12/12 02:00:30;;;;;;;2.55;2.00;;;18.30;50.80;;;;;;4902336;29;20493;-65
2022/12/12 02:02:56;;;;;;;3.35;1.83;;;18.30;50.80;;;;;;4893191;29;20048;-65
2022/12/12 02:05:31;;;;;;;3.20;1.70;;;18.40;50.80;;;;;;4892526;29;20067;-66
2022/12/12 02:08:00;;;;;;;2.38;1.75;;;18.30;50.70;;;;;;4901759;29;20055;-65
2022/12/12 02:10:26;;;;;;;2.10;1.65;;;18.30;50.70;;;;;;4890423;29;20044;-66
2022/12/12 02:13:05;;;;;;;2.65;1.50;;;18.40;50.70;;;;;;4909827;29;20096;-65
2022/12/12 02:15:41;;;;;;;2.63;1.75;;;18.40;50.70;;;;;;4909051;29;20127;-65
2022/12/12 02:18:14;;;;;;;2.72;1.77;;;18.40;50.70;;;;;;4908335;29;20044;-65
2022/12/12 02:20:53;;;;;;;2.88;1.65;;;18.40;50.70;;;;;;4909380;29;20100;-65
2022/12/12 02:23:49;;;;;;;2.75;1.90;;;18.40;50.60;;;;;;4904574;29;20143;-66
2022/12/12 02:26:38;;;;;;;2.15;1.52;;;18.40;50.60;;;;;;4900357;29;20040;-65
2022/12/12 02:29:10;;;;;;;2.38;1.58;;;18.40;50.60;;;;;;4908477;29;20052;-66
2022/12/12 02:32:03;;;;;;;2.10;1.77;;;18.40;50.60;;;;;;4909038;29;20585;-65
2022/12/12 02:34:59;;;;;;;2.60;1.52;;;18.40;50.50;;;;;;4909740;29;20044;-65
2022/12/12 02:37:34;;;;;;;2.60;1.70;;;18.40;50.60;;;;;;4910021;29;20047;-65
2022/12/12 02:40:12;;;;;;;2.25;1.50;;;18.40;50.50;;;;;;4906604;29;20626;-65
2022/12/12 02:43:08;;;;;;;1.50;1.38;;;18.40;50.40;;;;;;4909771;29;20066;-65
2022/12/12 02:45:41;;;;;;;2.38;1.77;;;18.40;50.40;;;;;;4901259;29;20127;-66
2022/12/12 02:48:38;;;;;;;2.55;1.70;;;18.40;50.40;;;;;;4908574;29;20047;-66
2022/12/12 02:51:07;;;;;;;2.25;1.77;;;18.40;50.30;;;;;;4909457;29;20059;-66
2022/12/12 02:53:32;;;;;;;1.88;1.52;;;18.40;50.30;;;;;;4902558;29;20041;-66
2022/12/12 02:56:05;;;;;;;;;;;18.40;50.30;;;;;;4909373;29;20056;-65
2022/12/12 02:58:33;;;;;;;2.38;1.70;;;18.50;50.30;;;;;;4894173;29;19934;-66
2022/12/12 03:01:27;;;;;;;1.92;1.65;;;18.50;50.30;;;;;;4909364;29;20118;-66
2022/12/12 03:10:10;;;;;;;2.38;1.70;;;18.50;50.20;;;;;;4914417;29;20051;-66
2022/12/12 03:12:48;;;;;;;2.10;1.60;;;18.50;50.20;;;;;;4921320;29;20052;-66
2022/12/12 03:15:22;;;;;;;2.00;1.50;;;18.50;50.10;;;;;;4878567;29;20055;-65
2022/12/12 03:17:50;;;;;;;1.67;1.50;;;18.50;50.10;;;;;;4909835;29;20048;-66
2022/12/12 03:20:27;;;;;;;2.83;1.55;;;18.50;50.10;;;;;;4896948;29;20044;-65
2022/12/12 03:23:04;;;;;;;2.35;1.50;;;18.50;50.00;;;;;;4900023;29;20051;-66
2022/12/12 03:25:58;;;;;;;1.98;1.48;;;18.50;50.00;;;;;;4909532;29;20052;-66
2022/12/12 03:28:36;;;;;;;1.83;1.48;;;18.50;50.00;;;;;;4871023;29;20099;-65
2022/12/12 03:31:07;;;;;;;2.33;1.55;;;18.50;50.00;;;;;;4908513;29;20054;-66
2022/12/12 03:33:40;;;;;;;2.17;1.50;;;18.50;50.00;;;;;;4908692;29;20028;-65
2022/12/12 03:36:15;;;;;;;2.30;1.50;;;18.50;50.00;;;;;;4896916;29;20385;-66
2022/12/12 03:38:48;;;;;;;1.92;1.40;;;18.50;50.00;;;;;;4909359;29;20111;-66
2022/12/12 03:41:19;;;;;;;2.58;1.63;;;18.50;49.90;;;;;;4884160;29;20075;-65
2022/12/12 03:44:01;;;;;;;2.58;1.63;;;18.50;50.00;;;;;;4907678;29;20975;-65
2022/12/12 03:46:32;;;;;;;1.92;1.52;;;18.50;49.90;;;;;;4909088;29;20136;-66
2022/12/12 03:49:27;;;;;;;1.73;1.50;;;18.50;49.90;;;;;;4906683;29;20058;-65
2022/12/12 03:52:02;;;;;;;2.35;1.40;;;18.50;49.90;;;;;;4892330;29;20040;-66
2022/12/12 03:54:38;;;;;;;2.10;1.50;;;18.50;49.90;;;;;;4908099;29;20056;-67
2022/12/12 03:57:13;;;;;;;2.70;1.60;;;18.50;49.90;;;;;;4908563;29;20492;-66
2022/12/12 03:59:52;;;;;;;1.52;1.35;;;18.50;49.90;;;;;;4915469;29;20069;-66
2022/12/12 04:02:44;;;;;;;2.25;1.48;;;18.50;49.90;;;;;;4897995;29;20055;-66
2022/12/12 04:05:15;;;;;;;1.70;1.40;;;18.50;49.90;;;;;;4908269;29;20218;-64
2022/12/12 04:07:56;;;;;;;2.28;1.55;;;18.50;49.90;;;;;;4907526;29;20797;-65
2022/12/12 04:13:28;;;;;;;2.50;1.60;;;18.50;49.90;;;;;;4902405;29;20076;-66
2022/12/12 04:16:09;;;;;;;1.60;1.33;;;18.50;49.90;;;;;;4910091;29;20047;-66
2022/12/12 04:18:40;;;;;;;1.77;1.45;;;18.50;49.90;;;;;;4906188;29;20115;-65
2022/12/12 04:24:49;;;;;;;1.73;1.40;;;18.50;50.60;;;;;;4922906;29;20064;-65
2022/12/12 04:27:39;;;;;;;2.00;1.50;;;18.50;49.80;;;;;;4910803;29;20060;-66
2022/12/12 04:30:10;;;;;;;1.85;1.70;;;18.50;49.90;;;;;;4903736;29;20055;-65
2022/12/12 04:32:46;;;;;;;1.90;1.60;;;18.40;49.80;;;;;;4910478;29;20040;-65
2022/12/12 04:35:25;;;;;;;2.38;1.65;;;18.50;49.80;;;;;;4912420;29;20123;-65
2022/12/12 04:37:57;;;;;;;1.95;1.30;;;18.40;49.80;;;;;;4923768;29;20531;-66
2022/12/12 04:40:36;;;;;;;2.03;1.50;;;18.50;49.90;;;;;;4912228;29;20048;-66
2022/12/12 04:43:15;;;;;;;1.42;1.25;;;18.40;49.80;;;;;;4911056;29;20441;-66
2022/12/12 04:45:45;;;;;;;1.85;1.42;;;18.40;49.70;;;;;;4910202;29;20040;-65
2022/12/12 04:48:15;;;;;;;1.77;1.40;;;18.50;49.90;;;;;;4895024;29;20067;-66
2022/12/12 04:50:47;;;;;;;1.55;1.15;;;18.50;49.80;;;;;;4911165;29;20052;-65
2022/12/12 04:53:15;;;;;;;2.22;1.40;;;18.40;49.80;;;;;;4917869;29;20043;-65
2022/12/12 04:55:49;;;;;;;2.88;1.60;;;18.40;49.80;;;;;;4911366;29;20044;-65
2022/12/12 04:58:16;;;;;;;2.10;1.45;;;18.40;49.70;;;;;;4910328;29;20428;-64
2022/12/12 05:01:10;;;;;;;1.77;1.48;;;18.40;49.80;;;;;;4911788;29;20036;-65
2022/12/12 05:03:45;;;;;;;2.38;1.67;;;18.40;49.70;;;;;;4885678;29;20166;-65
2022/12/12 05:06:14;;;;;;;1.75;1.40;;;18.40;49.80;;;;;;4912011;29;20044;-65
2022/12/12 05:08:49;;;;;;;2.30;1.52;;;18.40;49.70;;;;;;4905883;29;20048;-65
2022/12/12 05:11:17;;;;;;;2.33;1.63;;;18.40;49.70;;;;;;4910580;29;20088;-64
2022/12/12 05:13:43;;;;;;;2.22;1.70;;;18.40;49.70;;;;;;4910526;29;20071;-66
2022/12/12 05:16:18;;;;;;;2.08;1.70;;;18.40;49.70;;;;;;4910494;29;20131;-65
2022/12/12 05:18:44;;;;;;;2.70;1.67;;;18.40;49.70;;;;;;4902103;29;20505;-65
2022/12/12 05:21:11;;;;;;;2.30;1.40;;;18.40;49.70;;;;;;4911855;29;20408;-65
2022/12/12 05:23:36;;;;;;;2.60;1.40;;;18.40;49.70;;;;;;4895854;29;20107;-65
2022/12/12 05:26:22;;;;;;;2.20;1.50;;;18.40;49.70;;;;;;4910717;29;20863;-65
2022/12/12 05:28:48;;;;;;;1.67;1.23;;;18.40;49.70;;;;;;4900261;29;20531;-65
2022/12/12 05:31:13;;;;;;;2.20;1.70;;;18.40;49.70;;;;;;4907429;29;20056;-65
2022/12/12 05:33:39;;;;;;;1.90;1.50;;;18.40;49.70;;;;;;4918123;29;20055;-65
2022/12/12 05:36:05;;;;;;;1.88;1.52;;;18.40;49.70;;;;;;4911273;29;20056;-65
2022/12/12 05:38:31;;;;;;;1.85;1.40;;;18.40;49.60;;;;;;4924164;29;20044;-65
2022/12/12 05:40:56;;;;;;;1.88;1.58;;;18.40;49.60;;;;;;4910607;29;20397;-66
2022/12/12 05:43:22;;;;;;;1.33;1.23;;;18.40;49.70;;;;;;4907465;29;20111;-65
2022/12/12 05:45:47;;;;;;;1.85;1.48;;;18.30;49.50;;;;;;4905427;29;20048;-67
2022/12/12 05:48:13;;;;;;;2.35;1.42;;;18.40;49.60;;;;;;4903621;29;20048;-65
2022/12/12 05:50:38;;;;;;;1.75;1.50;;;18.40;49.60;;;;;;4902820;29;20051;-65
2022/12/12 05:53:04;;;;;;;2.78;1.70;;;18.40;49.60;;;;;;4905622;29;20048;-65
2022/12/12 05:55:30;;;;;;;3.10;1.67;;;18.40;49.60;;;;;;4903618;29;20055;-65
2022/12/12 05:57:55;;;;;;;1.83;1.30;;;18.40;49.70;;;;;;4924981;29;20052;-65
2022/12/12 06:00:21;;;;;;;4.05;1.83;;;18.40;49.90;;;;;;4888426;29;20508;-65
2022/12/12 06:02:46;;;;;;;1.90;1.60;;;18.40;50.10;;;;;;4908324;29;20088;-65
2022/12/12 06:05:12;;;;;;;2.25;1.67;;;18.40;50.10;;;;;;4907365;29;20075;-65
2022/12/12 06:07:38;;;;;;;1.80;1.50;;;18.40;50.20;;;;;;4902472;29;20052;-64
2022/12/12 06:10:04;;;;;;;2.00;1.50;;;18.40;50.30;;;;;;4903649;29;20047;-66
2022/12/12 06:12:29;;;;;;;1.80;1.50;;;18.40;50.30;;;;;;4904855;29;20056;-65
2022/12/12 06:14:55;;;;;;;2.20;1.50;;;18.40;50.50;;;;;;4905957;29;20047;-64
2022/12/12 06:17:20;;;;;;;2.17;1.60;;;18.40;50.50;;;;;;4905221;29;20096;-65
2022/12/12 06:19:46;;;;;;;3.53;1.35;;;18.40;50.50;;;;;;4906665;29;20060;-65
2022/12/12 06:22:12;;;;;;;1.77;1.40;;;18.40;50.60;;;;;;4906356;29;20048;-67
2022/12/12 06:24:37;;;;;;;2.45;1.63;;;18.40;50.60;;;;;;4902847;29;20493;-65
2022/12/12 06:27:03;;;;;;;1.70;1.50;;;18.50;50.50;;;;;;4901481;29;20076;-65
2022/12/12 06:29:28;;;;;;;1.60;1.50;;;18.40;50.40;;;;;;4903909;29;20051;-66
2022/12/12 06:31:54;;;;;;;2.22;1.70;;;18.40;50.40;;;;;;4902232;29;20064;-66
2022/12/12 06:34:19;;;;;;;2.72;1.75;;;18.40;50.40;;;;;;4905747;29;20048;-64
2022/12/12 06:36:45;;;;;;;2.17;1.55;;;18.40;50.30;;;;;;4905690;29;20056;-65
2022/12/12 06:39:11;;;;;;;1.88;1.55;;;18.40;50.30;;;;;;4905146;29;20098;-67
2022/12/12 06:41:37;;;;;;;3.67;1.85;;;18.40;50.30;;;;;;4905169;29;20099;-65
2022/12/12 06:44:05;;;;;;;;;;;18.40;50.30;;;;;;4903303;29;20131;-64
2022/12/12 06:46:31;;;;;;;3.30;1.70;;;18.40;50.20;;;;;;4915262;29;19927;-64
2022/12/12 06:48:57;;;;;;;2.65;1.85;;;18.40;50.30;;;;;;4906088;29;20147;-64
2022/12/12 06:51:26;;;;;;;2.92;1.85;;;18.40;50.50;;;;;;4905448;29;20044;-67
2022/12/12 06:53:52;;;;;;;2.58;1.60;;;18.40;50.60;;;;;;4903074;29;20091;-66
2022/12/12 06:56:30;;;;;;;2.30;1.50;;;18.40;50.60;;;;;;4897161;29;20052;-67
2022/12/12 06:58:59;;;;;;;5.30;1.67;;;18.40;50.70;;;;;;4900820;29;20040;-65
2022/12/12 07:01:25;;;;;;;2.40;1.70;;;18.40;50.80;;;;;;4907510;29;20044;-65
2022/12/12 07:03:52;;;;;;;2.08;1.70;;;18.40;50.90;;;;;;4892591;29;20095;-67
2022/12/12 07:06:19;;;;;;;2.60;1.90;;;18.40;50.90;;;;;;4906444;29;20048;-65
2022/12/12 07:08:45;;;;;;;2.20;1.50;;;18.40;50.90;;;;;;4910534;29;20050;-65
2022/12/12 07:11:16;;;;;;;2.05;1.73;;;18.40;50.90;;;;;;4907668;29;20039;-64
2022/12/12 07:13:41;;;;;;;2.53;1.60;;;18.40;51.00;;;;;;4894284;29;20095;-65
2022/12/12 07:16:07;;;;;;;2.63;1.40;;;18.40;50.90;;;;;;4906842;29;20047;-65
2022/12/12 07:18:33;;;;;;;1.98;1.40;;;18.40;50.90;;;;;;4900785;29;20089;-65
2022/12/12 07:21:03;;;;;;;2.22;1.48;;;18.40;50.90;;;;;;4906640;29;20648;-64
2022/12/12 07:23:28;;;;;;;2.65;1.55;;;18.40;50.90;;;;;;4908650;29;20036;-65
2022/12/12 07:25:54;;;;;;;2.55;1.75;;;18.40;50.80;;;;;;4905475;29;20044;-65
2022/12/12 07:28:20;;;;;;;2.10;1.70;;;18.40;50.80;;;;;;4907635;29;20064;-65
2022/12/12 07:30:46;;;;;;;1.90;1.50;;;18.40;50.70;;;;;;4905326;29;20055;-65
2022/12/12 07:33:13;;;;;;;2.33;1.65;;;18.40;50.70;;;;;;4909086;29;22063;-65
2022/12/12 07:35:39;;;;;;;1.83;1.50;;;18.40;50.60;;;;;;4917902;29;20050;-65
2022/12/12 07:38:05;;;;;;;2.80;1.67;;;18.40;50.60;;;;;;4911495;29;20842;-68
2022/12/12 07:40:31;;;;;;;2.17;1.80;;;18.40;50.50;;;;;;4922729;29;20040;-69
2022/12/12 07:42:58;;;;;;;2.42;1.60;;;18.40;50.50;;;;;;4907048;29;20665;-69
2022/12/12 07:45:24;;;;;;;3.10;1.80;;;18.40;50.50;;;;;;4910597;29;20044;-68
2022/12/12 07:47:50;;;;;;;2.65;1.98;;;18.30;50.40;;;;;;4925760;29;20091;-68
2022/12/12 07:50:16;;;;;;;4.60;2.03;;;18.30;50.40;;;;;;4926781;29;20067;-67
2022/12/12 07:52:42;;;;;;;3.95;1.88;;;18.30;50.40;;;;;;4912050;29;20408;-68
2022/12/12 07:55:08;;;;;;;3.45;2.05;;;18.30;50.20;;;;;;4912925;29;20580;-67
2022/12/12 07:57:34;;;;;;;4.47;1.80;;;18.30;50.10;;;;;;4912362;29;20497;-68
2022/12/12 08:00:03;;;;;;;;;;;18.30;50.00;;;;;;4912368;29;20044;-67
2022/12/12 08:02:30;;;;;;;3.53;2.10;;;18.30;49.70;;;;;;4896544;29;19927;-67
2022/12/12 08:04:56;;;;;;;3.25;2.25;;;18.20;49.90;;;;;;4914180;29;20057;-67
2022/12/12 08:07:22;;;;;;;5.25;2.25;;;18.20;49.80;;;;;;4912495;29;20044;-67
2022/12/12 08:09:48;;;;;;;4.57;2.40;;;18.30;49.70;;;;;;4911252;29;20096;-67
2022/12/12 08:12:13;;;;;;;4.78;2.50;;;18.30;49.60;;;;;;4911549;29;20064;-68
2022/12/12 08:14:39;;;;;;;4.97;2.28;;;18.30;49.50;;;;;;4911181;29;20052;-67
2022/12/12 08:17:04;;;;;;;3.80;2.30;;;18.30;49.30;;;;;;4911906;29;20040;-67
2022/12/12 08:19:31;;;;;;;3.50;2.00;;;18.30;49.20;;;;;;4913097;29;20566;-67
2022/12/12 08:21:57;;;;;;;3.45;1.92;;;18.30;49.10;;;;;;4898048;29;20043;-68
2022/12/12 08:24:27;;;;;;;;;;;18.30;49.00;;;;;;4911758;29;20052;-67
2022/12/12 08:26:52;;;;;;;4.63;2.17;;;18.30;48.70;;;;;;4894554;29;19931;-68
2022/12/12 08:29:18;;;;;;;3.55;2.40;;;18.40;49.00;;;;;;4911950;29;20673;-68
2022/12/12 08:31:44;;;;;;;3.70;2.20;;;18.30;48.80;;;;;;4911666;29;20556;-68
2022/12/12 08:34:09;;;;;;;4.32;2.33;;;18.40;48.70;;;;;;4911910;29;20694;-67
2022/12/12 08:36:35;;;;;;;3.20;2.10;;;18.40;48.60;;;;;;4908050;29;20048;-68
2022/12/12 08:39:11;;;;;;;4.03;2.10;;;18.40;48.50;;;;;;4910755;29;20040;-68
2022/12/12 08:41:39;;;;;;;3.53;2.40;;;18.40;48.40;;;;;;4906505;29;20111;-68
2022/12/12 08:44:05;;;;;;;3.55;2.40;;;18.40;48.30;;;;;;4896856;29;20479;-67
2022/12/12 08:46:31;;;;;;;3.67;2.38;;;18.40;48.20;;;;;;4911650;29;20076;-67
2022/12/12 08:48:56;;;;;;;4.10;2.25;;;18.40;48.10;;;;;;4911161;29;20067;-67
2022/12/12 08:51:22;;;;;;;4.50;2.20;;;18.40;47.90;;;;;;4913803;29;20111;-68
2022/12/12 08:53:50;;;;;;;2.65;2.05;;;18.50;47.90;;;;;;4910628;29;20048;-68
2022/12/12 08:56:17;;;;;;;3.25;2.33;;;18.40;47.70;;;;;;4892949;29;20052;-69
2022/12/12 08:58:44;;;;;;;4.45;2.13;;;18.40;47.60;;;;;;4911914;29;20059;-69
2022/12/12 09:01:18;;;;;;;3.75;2.30;;;18.50;47.60;;;;;;4910436;29;20039;-69
2022/12/12 09:03:44;;;;;;;3.72;2.30;;;18.50;47.60;;;;;;4911158;29;20048;-69
2022/12/12 09:06:10;;;;;;;3.53;2.55;;;18.50;47.40;;;;;;4910605;29;20040;-69
2022/12/12 09:08:37;;;;;;;3.42;2.15;;;18.50;47.30;;;;;;4911965;29;20043;-69
2022/12/12 09:11:03;;;;;;;3.28;2.30;;;18.50;47.30;;;;;;4913804;29;20051;-69
2022/12/12 09:13:29;;;;;;;4.55;2.70;;;18.50;47.10;;;;;;4910422;29;20044;-69
2022/12/12 09:15:55;;;;;;;2.47;1.80;;;18.60;47.10;;;;;;4894241;29;20060;-69
2022/12/12 09:18:21;;;;;;;4.07;2.78;;;18.60;47.10;;;;;;4893263;29;20051;-68
2022/12/12 09:20:48;;;;;;;4.90;2.97;;;18.60;46.80;;;;;;4911674;29;20436;-69
2022/12/12 09:23:15;;;;;;;4.60;2.88;;;18.50;46.50;;;;;;4885184;29;20083;-68
2022/12/12 09:25:40;;;;;;;3.35;2.63;;;18.50;46.10;;;;;;4907970;29;20040;-68
2022/12/12 09:28:07;;;;;;;5.15;3.13;;;18.50;45.90;;;;;;4906902;29;20055;-69
2022/12/12 09:30:35;;;;;;;4.47;2.63;;;18.50;45.90;;;;;;4905389;29;20142;-69
2022/12/12 09:33:01;;;;;;;2.97;2.30;;;18.50;46.00;;;;;;4907231;29;20048;-70
2022/12/12 09:35:27;;;;;;;5.22;2.45;;;18.50;46.10;;;;;;4907814;29;20048;-70
2022/12/12 09:37:53;;;;;;;3.65;2.80;;;18.60;46.30;;;;;;4926529;29;20070;-71
2022/12/12 09:40:26;;;;;;;3.05;2.20;;;18.60;46.30;;;;;;4933923;29;20048;-68
2022/12/12 09:42:51;;;;;;;3.33;2.28;;;18.60;46.20;;;;;;4907767;29;20345;-68
2022/12/12 09:45:18;;;;;;;3.63;2.30;;;18.60;46.30;;;;;;4910030;29;20040;-66
2022/12/12 09:47:47;;;;;;;2.72;2.13;;;18.60;46.30;;;;;;4910733;29;20443;-67
2022/12/12 09:50:38;;;;;;;4.22;2.20;;;18.60;46.30;;;;;;4909465;29;20398;-66
2022/12/12 09:53:10;;;;;;;4.25;2.20;;;18.60;46.20;;;;;;4903573;29;20040;-68
2022/12/12 09:55:48;;;;;;;4.00;2.15;;;18.70;46.30;;;;;;4905844;29;20083;-67
2022/12/12 09:58:33;;;;;;;3.45;2.13;;;18.70;46.30;;;;;;4884647;29;20052;-68
2022/12/12 10:01:15;;;;;;;2.38;2.05;;;18.70;46.20;;;;;;4901096;29;20072;-68
2022/12/12 10:03:54;;;;;;;2.92;2.10;;;18.70;46.20;;;;;;4896363;29;20052;-67
2022/12/12 10:06:22;;;;;;;2.50;1.80;;;18.70;46.20;;;;;;4901291;29;20045;-67
2022/12/12 10:08:59;;;;;;;3.60;2.22;;;18.70;47.00;;;;;;4906250;29;20054;-67
2022/12/12 10:11:49;;;;;;;5.00;2.20;;;18.70;46.10;;;;;;4908250;29;20048;-68
2022/12/12 10:14:21;;;;;;;2.53;2.22;;;18.80;46.10;;;;;;4907020;29;20276;-68
2022/12/12 10:16:50;;;;;;;3.10;2.13;;;18.80;46.10;;;;;;4910269;29;20092;-66
2022/12/12 10:19:27;;;;;;;3.15;2.10;;;18.80;46.10;;;;;;4904937;29;20048;-68
2022/12/12 10:21:59;;;;;;;5.80;2.00;;;18.80;46.00;;;;;;4893270;29;20063;-69
2022/12/12 10:24:46;;;;;;;5.50;2.75;;;18.80;46.00;;;;;;4904959;29;20051;-68
2022/12/12 10:27:14;;;;;;;6.45;2.90;;;18.80;45.60;;;;;;4899214;29;20095;-67
2022/12/12 10:29:45;;;;;;;5.10;2.50;;;18.80;45.80;;;;;;4901616;29;20398;-67
2022/12/12 10:32:24;;;;;;;3.20;2.58;;;18.80;45.90;;;;;;4903516;29;20036;-68
2022/12/12 10:34:59;;;;;;;4.50;2.55;;;18.80;45.90;;;;;;4903256;29;20115;-69
2022/12/12 10:37:43;;;;;;;6.05;2.45;;;18.80;45.70;;;;;;4906565;29;20095;-68
2022/12/12 10:40:33;;;;;;;4.10;2.70;;;18.80;45.70;;;;;;4905245;29;20043;-68
2022/12/12 10:43:09;;;;;;;3.50;2.60;;;18.80;45.80;;;;;;4907684;29;20139;-69
2022/12/12 10:45:50;;;;;;;5.90;2.60;;;18.90;45.90;;;;;;4903434;29;20047;-66
2022/12/12 10:48:16;;;;;;;4.35;2.75;;;18.90;45.70;;;;;;4911096;29;20054;-66
2022/12/12 10:50:48;;;;;;;4.07;2.67;;;18.90;45.70;;;;;;4907941;29;20590;-67
2022/12/12 10:53:14;;;;;;;4.50;2.75;;;18.90;45.50;;;;;;4906207;29;20056;-66
2022/12/12 10:55:50;;;;;;;3.95;2.78;;;18.90;45.60;;;;;;4890425;29;20055;-66
2022/12/12 10:58:16;;;;;;;4.28;2.75;;;18.90;45.50;;;;;;4921411;29;20481;-68
2022/12/12 11:00:44;;;;;;;3.95;2.50;;;18.90;45.50;;;;;;4907699;29;20071;-68
2022/12/12 11:03:34;;;;;;;4.47;2.80;;;18.90;45.50;;;;;;4906373;29;20071;-67
2022/12/12 11:06:05;;;;;;;3.08;2.40;;;18.90;46.20;;;;;;4906101;29;20136;-67
2022/12/12 11:08:33;;;;;;;3.47;2.50;;;18.90;45.50;;;;;;4907859;29;20036;-67
2022/12/12 11:11:04;;;;;;;4.18;3.05;;;18.90;45.50;;;;;;4889064;29;20044;-67
2022/12/12 11:13:31;;;;;;;4.22;2.70;;;18.90;45.60;;;;;;4907982;29;20063;-66
2022/12/12 11:16:06;;;;;;;6.32;3.13;;;19.00;45.70;;;;;;4889027;29;20058;-67
2022/12/12 11:18:31;;;;;;;4.75;2.42;;;18.90;45.70;;;;;;4904173;29;20050;-67
2022/12/12 11:21:12;;;;;;;8.73;3.45;;;18.90;45.70;;;;;;4899041;29;20032;-66
2022/12/12 11:23:53;;;;;;;9.45;3.08;;;18.90;45.70;;;;;;4905333;29;20048;-67
2022/12/12 11:26:21;;;;;;;3.92;2.90;;;18.90;45.80;;;;;;4891022;29;20060;-67
2022/12/12 11:28:55;;;;;;;7.63;3.17;;;18.90;45.90;;;;;;4903473;29;20146;-67
2022/12/12 11:31:24;;;;;;;4.93;3.30;;;19.00;46.00;;;;;;4901638;29;20084;-68
2022/12/12 11:33:56;;;;;;;6.57;3.08;;;18.90;46.00;;;;;;4893380;29;20042;-68
2022/12/12 11:36:33;;;;;;;5.45;3.38;;;18.90;46.10;;;;;;4901214;29;20560;-69
2022/12/12 11:39:01;;;;;;;6.15;3.38;;;18.90;46.10;;;;;;4903803;29;20052;-68
2022/12/12 11:41:27;;;;;;;4.43;3.30;;;18.90;46.20;;;;;;4884169;29;20139;-71
2022/12/12 11:43:56;;;;;;;5.63;3.08;;;18.90;46.20;;;;;;4903486;29;20151;-69
2022/12/12 11:46:28;;;;;;;6.85;3.55;;;18.90;46.20;;;;;;4907607;29;20551;-69
2022/12/12 11:49:00;;;;;;;4.78;2.95;;;19.00;46.20;;;;;;4878420;29;20048;-67
2022/12/12 11:51:34;;;;;;;4.55;3.05;;;18.90;46.20;;;;;;4888253;29;20045;-67
2022/12/12 11:54:09;;;;;;;7.00;3.63;;;18.90;46.10;;;;;;4903814;29;20048;-67
2022/12/12 11:56:56;;;;;;;5.10;2.90;;;18.90;45.90;;;;;;4884484;29;20056;-67
2022/12/12 12:00:00;;;;;;;8.15;3.40;;;18.90;45.90;;;;;;4885138;29;20622;-67
2022/12/12 12:02:58;;;;;;;5.80;3.40;;;18.90;45.80;;;;;;4903094;29;20040;-65
2022/12/12 12:05:31;;;;;;;6.30;3.10;;;18.90;45.80;;;;;;4900405;29;20056;-64
2022/12/12 12:08:22;;;;;;;5.55;3.38;;;18.90;45.90;;;;;;4908561;29;20048;-66
2022/12/12 12:10:56;;;;;;;7.03;3.08;;;18.90;46.00;;;;;;4902242;29;20054;-65
2022/12/12 12:13:55;;;;;;;6.85;3.00;;;18.90;46.20;;;;;;4902176;29;20044;-65
2022/12/12 12:16:52;;;;;;;5.78;3.38;;;18.90;46.30;;;;;;4900984;29;20481;-65
2022/12/12 12:19:30;;;;;;;4.78;3.30;;;18.90;46.90;;;;;;4892337;29;20056;-65
2022/12/12 12:22:17;;;;;;;4.72;3.13;;;18.90;46.60;;;;;;4884837;29;20048;-66
2022/12/12 12:25:13;;;;;;;5.82;3.20;;;18.90;46.70;;;;;;4898134;29;20048;-67
2022/12/12 12:27:57;;;;;;;6.00;3.13;;;19.00;46.90;;;;;;4915797;29;20094;-66
2022/12/12 12:30:25;;;;;;;5.05;3.72;;;19.00;46.90;;;;;;4901135;29;20037;-67
2022/12/12 12:33:38;;;;;;;5.28;3.03;;;18.90;46.90;;;;;;4913629;29;20098;-67
2022/12/12 12:36:14;;;;;;;5.40;3.08;;;19.00;47.10;;;;;;4847524;29;20077;-66
2022/12/12 12:38:59;;;;;;;5.22;3.35;;;18.90;47.00;;;;;;4864683;29;20518;-66
2022/12/12 12:41:46;;;;;;;5.35;3.30;;;19.00;47.20;;;;;;4890656;29;20060;-67
2022/12/12 12:44:19;;;;;;;4.00;3.05;;;18.90;47.10;;;;;;4901540;29;20159;-67
2022/12/12 12:46:55;;;;;;;4.25;3.50;;;19.00;47.30;;;;;;4903606;29;20461;-65
2022/12/12 12:49:39;;;;;;;6.00;3.42;;;18.90;47.30;;;;;;4902308;29;20520;-67
2022/12/12 12:52:20;;;;;;;4.55;3.40;;;19.00;47.40;;;;;;4903677;29;20055;-66
2022/12/12 12:54:51;;;;;;;4.88;3.67;;;19.00;47.40;;;;;;4883671;29;20052;-67
2022/12/12 12:57:31;;;;;;;10.38;3.60;;;18.90;47.40;;;;;;4903265;29;20056;-68
2022/12/12 13:00:03;;;;;;;6.30;3.75;;;19.00;47.50;;;;;;4903451;29;20555;-68
2022/12/12 13:02:48;;;;;;;4.68;3.33;;;19.00;47.60;;;;;;4901475;29;20082;-66
2022/12/12 13:05:24;;;;;;;5.32;3.53;;;19.00;47.70;;;;;;4907751;29;20044;-66
2022/12/12 13:08:20;;;;;;;4.53;3.65;;;18.90;47.80;;;;;;4902457;29;20036;-66
2022/12/12 13:10:51;;;;;;;5.45;3.75;;;18.90;47.60;;;;;;4888954;29;20055;-67
2022/12/12 13:13:39;;;;;;;6.78;3.78;;;19.00;47.70;;;;;;4909599;29;20100;-66
2022/12/12 13:16:15;;;;;;;5.85;3.70;;;18.90;47.60;;;;;;4882867;29;20068;-67
2022/12/12 13:18:44;;;;;;;8.15;3.60;;;18.90;47.60;;;;;;4880130;29;20064;-67
2022/12/12 13:21:18;;;;;;;;;;;18.90;47.60;;;;;;4907145;29;20063;-68
2022/12/12 13:23:57;;;;;;;6.60;3.40;;;18.90;47.80;;;;;;4906444;29;20499;-68